createdAt,value
2018-07-28T00:00:11.719Z,0
2018-07-28T00:00:24.132Z,0
2018-07-28T00:00:36.521Z,0
2018-07-28T00:00:48.995Z,0
2018-07-28T00:01:01.422Z,0
2018-07-28T00:01:13.843Z,0
2018-07-28T00:01:26.450Z,0
2018-07-28T00:01:38.853Z,0
2018-07-28T00:01:51.305Z,0
2018-07-28T00:02:03.732Z,0
2018-07-28T00:02:16.409Z,0
2018-07-28T00:02:28.792Z,1.609344
2018-07-28T00:02:41.184Z,1.609344
2018-07-28T00:02:53.594Z,1.609344
2018-07-28T00:03:06.015Z,0
2018-07-28T00:03:18.571Z,0
2018-07-28T00:03:30.979Z,1.609344
2018-07-28T00:03:43.407Z,1.609344
2018-07-28T00:03:55.813Z,1.609344
2018-07-28T00:04:08.266Z,1.609344
2018-07-28T00:04:20.666Z,1.609344
2018-07-28T00:04:33.137Z,1.609344
2018-07-28T00:04:45.572Z,1.609344
2018-07-28T00:04:57.963Z,1.609344
2018-07-28T00:05:10.356Z,3.218688
2018-07-28T00:05:22.792Z,3.218688
2018-07-28T00:05:35.187Z,3.218688
2018-07-28T00:05:47.590Z,3.218688
2018-07-28T00:06:00.092Z,3.218688
2018-07-28T00:06:12.483Z,0
2018-07-28T00:06:24.876Z,0
2018-07-28T00:06:37.261Z,0
2018-07-28T00:06:49.657Z,0
2018-07-28T00:07:02.071Z,0
2018-07-28T00:07:14.485Z,1.609344
2018-07-28T00:07:26.873Z,1.609344
2018-07-28T00:07:39.269Z,1.609344
2018-07-28T00:07:51.665Z,1.609344
2018-07-28T00:08:04.051Z,1.609344
2018-07-28T00:08:16.488Z,0
2018-07-28T00:08:28.869Z,0
2018-07-28T00:08:41.365Z,0
2018-07-28T00:08:53.788Z,1.609344
2018-07-28T00:09:06.200Z,0
2018-07-28T00:09:18.624Z,1.609344
2018-07-28T00:09:31.025Z,1.609344
2018-07-28T00:09:43.414Z,3.218688
2018-07-28T00:09:55.820Z,3.218688
2018-07-28T00:10:08.219Z,3.218688
2018-07-28T00:10:20.608Z,3.218688
2018-07-28T00:10:33.009Z,3.218688
2018-07-28T00:10:45.424Z,3.218688
2018-07-28T00:10:57.873Z,3.218688
2018-07-28T00:11:10.323Z,1.609344
2018-07-28T00:11:22.754Z,1.609344
2018-07-28T00:11:35.159Z,1.609344
2018-07-28T00:11:47.560Z,1.609344
2018-07-28T00:11:59.944Z,1.609344
2018-07-28T00:12:12.346Z,1.609344
2018-07-28T00:12:24.759Z,3.218688
2018-07-28T00:12:37.184Z,3.218688
2018-07-28T00:12:49.625Z,3.218688
2018-07-28T00:13:02.051Z,3.218688
2018-07-28T00:13:14.458Z,3.218688
2018-07-28T00:13:26.851Z,3.218688
2018-07-28T00:13:39.263Z,3.218688
2018-07-28T00:13:51.661Z,3.218688
2018-07-28T00:14:04.037Z,3.218688
2018-07-28T00:14:16.432Z,1.609344
2018-07-28T00:14:28.829Z,1.609344
2018-07-28T00:14:41.223Z,1.609344
2018-07-28T00:14:53.646Z,1.609344
2018-07-28T00:15:06.044Z,0
2018-07-28T00:15:18.446Z,1.609344
2018-07-28T00:15:30.862Z,1.609344
2018-07-28T00:15:43.242Z,3.218688
2018-07-28T00:15:55.670Z,4.828032
2018-07-28T00:16:08.212Z,6.437376
2018-07-28T00:16:20.703Z,6.437376
2018-07-28T00:16:33.094Z,6.437376
2018-07-28T00:16:45.479Z,6.437376
2018-07-28T00:16:57.884Z,6.437376
2018-07-28T00:17:10.291Z,1.609344
2018-07-28T00:17:22.696Z,1.609344
2018-07-28T00:17:35.108Z,1.609344
2018-07-28T00:17:47.518Z,1.609344
2018-07-28T00:17:59.897Z,1.609344
2018-07-28T00:18:12.290Z,0
2018-07-28T00:18:24.693Z,1.609344
2018-07-28T00:18:37.106Z,1.609344
2018-07-28T00:18:49.492Z,1.609344
2018-07-28T00:19:01.914Z,1.609344
2018-07-28T00:19:14.311Z,0
2018-07-28T00:19:26.789Z,0
2018-07-28T00:19:39.184Z,0
2018-07-28T00:19:51.570Z,0
2018-07-28T00:20:04.002Z,0
2018-07-28T00:20:16.393Z,1.609344
2018-07-28T00:20:28.791Z,1.609344
2018-07-28T00:20:41.193Z,1.609344
2018-07-28T00:20:53.610Z,3.218688
2018-07-28T00:21:06.046Z,3.218688
2018-07-28T00:21:18.464Z,3.218688
2018-07-28T00:21:30.850Z,3.218688
2018-07-28T00:21:43.327Z,3.218688
2018-07-28T00:21:55.723Z,3.218688
2018-07-28T00:22:08.162Z,3.218688
2018-07-28T00:22:21.068Z,3.218688
2018-07-28T00:22:33.452Z,3.218688
2018-07-28T00:22:45.839Z,4.828032
2018-07-28T00:22:58.226Z,6.437376
2018-07-28T00:23:10.642Z,3.218688
2018-07-28T00:23:23.204Z,4.828032
2018-07-28T00:23:35.612Z,4.828032
2018-07-28T00:23:48.044Z,4.828032
2018-07-28T00:24:00.433Z,4.828032
2018-07-28T00:24:12.823Z,3.218688
2018-07-28T00:24:25.242Z,3.218688
2018-07-28T00:24:37.662Z,3.218688
2018-07-28T00:24:50.055Z,3.218688
2018-07-28T00:25:02.456Z,3.218688
2018-07-28T00:25:14.859Z,3.218688
2018-07-28T00:25:27.247Z,3.218688
2018-07-28T00:25:39.647Z,3.218688
2018-07-28T00:25:52.036Z,3.218688
2018-07-28T00:26:04.477Z,3.218688
2018-07-28T00:26:16.889Z,1.609344
2018-07-28T00:26:29.289Z,1.609344
2018-07-28T00:26:41.688Z,1.609344
2018-07-28T00:26:54.094Z,1.609344
2018-07-28T00:27:06.474Z,1.609344
2018-07-28T00:27:18.886Z,1.609344
2018-07-28T00:27:31.308Z,3.218688
2018-07-28T00:27:43.695Z,4.828032
2018-07-28T00:27:56.100Z,4.828032
2018-07-28T00:28:08.549Z,6.437376
2018-07-28T00:28:20.984Z,6.437376
2018-07-28T00:28:33.405Z,6.437376
2018-07-28T00:28:45.969Z,6.437376
2018-07-28T00:28:58.386Z,6.437376
2018-07-28T00:29:10.780Z,3.218688
2018-07-28T00:29:23.187Z,3.218688
2018-07-28T00:29:35.602Z,3.218688
2018-07-28T00:29:48.015Z,3.218688
2018-07-28T00:30:00.445Z,3.218688
2018-07-28T00:30:12.866Z,1.609344
2018-07-28T00:30:25.256Z,1.609344
2018-07-28T00:30:37.637Z,1.609344
2018-07-28T00:30:50.039Z,1.609344
2018-07-28T00:31:02.430Z,4.828032
2018-07-28T00:31:14.831Z,3.218688
2018-07-28T00:31:27.246Z,3.218688
2018-07-28T00:31:39.664Z,3.218688
2018-07-28T00:31:52.053Z,3.218688
2018-07-28T00:32:04.458Z,1.609344
2018-07-28T00:32:16.880Z,1.609344
2018-07-28T00:32:29.287Z,8.04672
2018-07-28T00:32:41.684Z,8.04672
2018-07-28T00:32:54.078Z,8.04672
2018-07-28T00:33:06.484Z,3.218688
2018-07-28T00:33:18.888Z,3.218688
2018-07-28T00:33:31.289Z,8.04672
2018-07-28T00:33:43.705Z,8.04672
2018-07-28T00:33:56.105Z,8.04672
2018-07-28T00:34:08.556Z,4.828032
2018-07-28T00:34:20.928Z,4.828032
2018-07-28T00:34:33.342Z,4.828032
2018-07-28T00:34:45.731Z,4.828032
2018-07-28T00:34:58.136Z,4.828032
2018-07-28T00:35:10.521Z,3.218688
2018-07-28T00:35:22.920Z,3.218688
2018-07-28T00:35:35.312Z,3.218688
2018-07-28T00:35:47.719Z,3.218688
2018-07-28T00:36:00.118Z,3.218688
2018-07-28T00:36:12.537Z,1.609344
2018-07-28T00:36:24.934Z,1.609344
2018-07-28T00:36:37.327Z,1.609344
2018-07-28T00:36:49.725Z,1.609344
2018-07-28T00:37:02.128Z,1.609344
2018-07-28T00:37:14.525Z,3.218688
2018-07-28T00:37:26.911Z,3.218688
2018-07-28T00:37:39.306Z,3.218688
2018-07-28T00:37:51.696Z,3.218688
2018-07-28T00:38:04.085Z,3.218688
2018-07-28T00:38:16.474Z,3.218688
2018-07-28T00:38:28.884Z,3.218688
2018-07-28T00:38:41.382Z,3.218688
2018-07-28T00:38:53.772Z,3.218688
2018-07-28T00:39:06.174Z,1.609344
2018-07-28T00:39:18.659Z,3.218688
2018-07-28T00:39:31.059Z,3.218688
2018-07-28T00:39:43.474Z,3.218688
2018-07-28T00:39:55.935Z,3.218688
2018-07-28T00:40:08.344Z,3.218688
2018-07-28T00:40:20.763Z,3.218688
2018-07-28T00:40:33.150Z,3.218688
2018-07-28T00:40:45.552Z,3.218688
2018-07-28T00:40:57.942Z,3.218688
2018-07-28T00:41:10.336Z,1.609344
2018-07-28T00:41:22.722Z,3.218688
2018-07-28T00:41:35.121Z,3.218688
2018-07-28T00:41:47.531Z,4.828032
2018-07-28T00:41:59.932Z,4.828032
2018-07-28T00:42:12.362Z,4.828032
2018-07-28T00:42:24.755Z,4.828032
2018-07-28T00:42:37.153Z,4.828032
2018-07-28T00:42:49.553Z,4.828032
2018-07-28T00:43:01.936Z,4.828032
2018-07-28T00:43:14.325Z,1.609344
2018-07-28T00:43:26.716Z,3.218688
2018-07-28T00:43:39.102Z,3.218688
2018-07-28T00:43:51.509Z,4.828032
2018-07-28T00:44:03.892Z,4.828032
2018-07-28T00:44:16.308Z,3.218688
2018-07-28T00:44:28.740Z,3.218688
2018-07-28T00:44:41.227Z,3.218688
2018-07-28T00:44:53.628Z,6.437376
2018-07-28T00:45:06.034Z,3.218688
2018-07-28T00:45:18.433Z,3.218688
2018-07-28T00:45:30.841Z,3.218688
2018-07-28T00:45:43.228Z,3.218688
2018-07-28T00:45:55.626Z,6.437376
2018-07-28T00:46:08.101Z,3.218688
2018-07-28T00:46:20.494Z,3.218688
2018-07-28T00:46:32.881Z,4.828032
2018-07-28T00:46:45.275Z,8.04672
2018-07-28T00:46:57.672Z,11.265408
2018-07-28T00:47:10.063Z,6.437376
2018-07-28T00:47:22.461Z,6.437376
2018-07-28T00:47:34.862Z,6.437376
2018-07-28T00:47:47.237Z,6.437376
2018-07-28T00:47:59.635Z,6.437376
2018-07-28T00:48:12.035Z,8.04672
2018-07-28T00:48:24.436Z,8.04672
2018-07-28T00:48:36.833Z,8.04672
2018-07-28T00:48:49.264Z,8.04672
2018-07-28T00:49:01.860Z,8.04672
2018-07-28T00:49:14.267Z,1.609344
2018-07-28T00:49:26.682Z,3.218688
2018-07-28T00:49:39.115Z,3.218688
2018-07-28T00:49:51.518Z,3.218688
2018-07-28T00:50:03.951Z,3.218688
2018-07-28T00:50:16.360Z,3.218688
2018-07-28T00:50:28.777Z,3.218688
2018-07-28T00:50:41.163Z,3.218688
2018-07-28T00:50:53.569Z,3.218688
2018-07-28T00:51:05.970Z,1.609344
2018-07-28T00:51:18.391Z,4.828032
2018-07-28T00:51:30.801Z,6.437376
2018-07-28T00:51:43.338Z,6.437376
2018-07-28T00:51:55.765Z,6.437376
2018-07-28T00:52:08.184Z,4.828032
2018-07-28T00:52:20.581Z,6.437376
2018-07-28T00:52:33.015Z,6.437376
2018-07-28T00:52:45.435Z,6.437376
2018-07-28T00:52:57.825Z,6.437376
2018-07-28T00:53:10.226Z,1.609344
2018-07-28T00:53:22.787Z,1.609344
2018-07-28T00:53:35.175Z,1.609344
2018-07-28T00:53:47.608Z,1.609344
2018-07-28T00:54:00.027Z,1.609344
2018-07-28T00:54:12.488Z,3.218688
2018-07-28T00:54:24.950Z,3.218688
2018-07-28T00:54:37.355Z,3.218688
2018-07-28T00:54:49.733Z,3.218688
2018-07-28T00:55:02.140Z,3.218688
2018-07-28T00:55:14.536Z,4.828032
2018-07-28T00:55:27.011Z,4.828032
2018-07-28T00:55:39.401Z,4.828032
2018-07-28T00:55:51.795Z,4.828032
2018-07-28T00:56:04.203Z,4.828032
2018-07-28T00:56:16.589Z,3.218688
2018-07-28T00:56:28.991Z,3.218688
2018-07-28T00:56:41.413Z,3.218688
2018-07-28T00:56:53.821Z,3.218688
2018-07-28T00:57:06.225Z,1.609344
2018-07-28T00:57:18.619Z,1.609344
2018-07-28T00:57:31.051Z,3.218688
2018-07-28T00:57:43.519Z,3.218688
2018-07-28T00:57:55.908Z,8.04672
2018-07-28T00:58:08.317Z,6.437376
2018-07-28T00:58:20.735Z,6.437376
2018-07-28T00:58:33.129Z,6.437376
2018-07-28T00:58:45.536Z,6.437376
2018-07-28T00:58:57.918Z,6.437376
2018-07-28T00:59:10.350Z,1.609344
2018-07-28T00:59:22.733Z,1.609344
2018-07-28T00:59:35.157Z,1.609344
2018-07-28T00:59:47.587Z,1.609344
2018-07-28T00:59:59.987Z,1.609344
2018-07-28T01:00:12.423Z,1.609344
2018-07-28T01:00:24.818Z,1.609344
2018-07-28T01:00:37.265Z,1.609344
2018-07-28T01:00:49.864Z,1.609344
2018-07-28T01:01:02.329Z,1.609344
2018-07-28T01:01:14.777Z,3.218688
2018-07-28T01:01:27.202Z,3.218688
2018-07-28T01:01:39.621Z,6.437376
2018-07-28T01:01:52.066Z,6.437376
2018-07-28T01:02:04.478Z,1.609344
2018-07-28T01:02:17.015Z,1.609344
2018-07-28T01:02:29.443Z,1.609344
2018-07-28T01:02:41.861Z,1.609344
2018-07-28T01:02:54.267Z,1.609344
2018-07-28T01:03:06.677Z,1.609344
2018-07-28T01:03:19.121Z,1.609344
2018-07-28T01:03:31.526Z,3.218688
2018-07-28T01:03:44.095Z,3.218688
2018-07-28T01:03:56.480Z,3.218688
2018-07-28T01:04:08.902Z,3.218688
2018-07-28T01:04:21.313Z,6.437376
2018-07-28T01:04:33.887Z,6.437376
2018-07-28T01:04:46.310Z,6.437376
2018-07-28T01:04:58.727Z,6.437376
2018-07-28T01:05:11.142Z,0
2018-07-28T01:05:23.564Z,1.609344
2018-07-28T01:05:35.971Z,1.609344
2018-07-28T01:05:48.525Z,4.828032
2018-07-28T01:06:00.925Z,4.828032
2018-07-28T01:06:13.342Z,1.609344
2018-07-28T01:06:25.735Z,1.609344
2018-07-28T01:06:38.150Z,3.218688
2018-07-28T01:06:50.559Z,3.218688
2018-07-28T01:07:02.947Z,3.218688
2018-07-28T01:07:15.348Z,0
2018-07-28T01:07:27.772Z,0
2018-07-28T01:07:40.184Z,0
2018-07-28T01:07:52.586Z,0
2018-07-28T01:08:04.980Z,0
2018-07-28T01:08:17.360Z,1.609344
2018-07-28T01:08:29.740Z,1.609344
2018-07-28T01:08:42.130Z,3.218688
2018-07-28T01:08:54.526Z,4.828032
2018-07-28T01:09:06.957Z,3.218688
2018-07-28T01:09:19.351Z,3.218688
2018-07-28T01:09:31.757Z,3.218688
2018-07-28T01:09:44.207Z,3.218688
2018-07-28T01:09:56.610Z,3.218688
2018-07-28T01:10:09.037Z,0
2018-07-28T01:10:21.439Z,1.609344
2018-07-28T01:10:33.879Z,1.609344
2018-07-28T01:10:46.297Z,1.609344
2018-07-28T01:10:58.724Z,1.609344
2018-07-28T01:11:11.145Z,1.609344
2018-07-28T01:11:23.579Z,1.609344
2018-07-28T01:11:35.980Z,1.609344
2018-07-28T01:11:48.360Z,4.828032
2018-07-28T01:12:00.750Z,6.437376
2018-07-28T01:12:13.158Z,3.218688
2018-07-28T01:12:25.557Z,3.218688
2018-07-28T01:12:37.949Z,3.218688
2018-07-28T01:12:50.346Z,3.218688
2018-07-28T01:13:02.731Z,3.218688
2018-07-28T01:13:15.123Z,1.609344
2018-07-28T01:13:27.521Z,1.609344
2018-07-28T01:13:39.938Z,1.609344
2018-07-28T01:13:52.344Z,4.828032
2018-07-28T01:14:04.785Z,3.218688
2018-07-28T01:14:17.201Z,3.218688
2018-07-28T01:14:29.617Z,3.218688
2018-07-28T01:14:42.031Z,3.218688
2018-07-28T01:14:54.481Z,3.218688
2018-07-28T01:15:06.900Z,1.609344
2018-07-28T01:15:19.289Z,1.609344
2018-07-28T01:15:31.706Z,1.609344
2018-07-28T01:15:44.110Z,1.609344
2018-07-28T01:15:56.881Z,9.656064
2018-07-28T01:16:09.285Z,8.04672
2018-07-28T01:16:21.668Z,8.04672
2018-07-28T01:16:34.101Z,8.04672
2018-07-28T01:16:46.604Z,8.04672
2018-07-28T01:16:58.989Z,8.04672
2018-07-28T01:17:11.435Z,6.437376
2018-07-28T01:17:23.833Z,6.437376
2018-07-28T01:17:36.229Z,6.437376
2018-07-28T01:17:48.613Z,6.437376
2018-07-28T01:18:01.015Z,6.437376
2018-07-28T01:18:13.411Z,1.609344
2018-07-28T01:18:25.809Z,1.609344
2018-07-28T01:18:38.227Z,1.609344
2018-07-28T01:18:50.620Z,1.609344
2018-07-28T01:19:03.015Z,1.609344
2018-07-28T01:19:15.586Z,1.609344
2018-07-28T01:19:27.983Z,1.609344
2018-07-28T01:19:40.387Z,1.609344
2018-07-28T01:19:52.783Z,1.609344
2018-07-28T01:20:05.195Z,0
2018-07-28T01:20:17.575Z,1.609344
2018-07-28T01:20:29.973Z,3.218688
2018-07-28T01:20:42.393Z,3.218688
2018-07-28T01:20:54.796Z,3.218688
2018-07-28T01:21:07.184Z,1.609344
2018-07-28T01:21:19.584Z,3.218688
2018-07-28T01:21:31.978Z,6.437376
2018-07-28T01:21:44.528Z,6.437376
2018-07-28T01:21:56.921Z,6.437376
2018-07-28T01:22:09.319Z,3.218688
2018-07-28T01:22:21.932Z,6.437376
2018-07-28T01:22:34.351Z,6.437376
2018-07-28T01:22:46.756Z,6.437376
2018-07-28T01:22:59.180Z,6.437376
2018-07-28T01:23:11.708Z,3.218688
2018-07-28T01:23:24.107Z,3.218688
2018-07-28T01:23:36.504Z,3.218688
2018-07-28T01:23:48.898Z,3.218688
2018-07-28T01:24:01.297Z,3.218688
2018-07-28T01:24:13.734Z,1.609344
2018-07-28T01:24:26.128Z,1.609344
2018-07-28T01:24:38.571Z,1.609344
2018-07-28T01:24:50.977Z,1.609344
2018-07-28T01:25:03.372Z,1.609344
2018-07-28T01:25:15.845Z,1.609344
2018-07-28T01:25:28.239Z,1.609344
2018-07-28T01:25:40.637Z,1.609344
2018-07-28T01:25:53.039Z,1.609344
2018-07-28T01:26:05.475Z,1.609344
2018-07-28T01:26:17.868Z,1.609344
2018-07-28T01:26:30.326Z,1.609344
2018-07-28T01:26:42.733Z,1.609344
2018-07-28T01:26:55.136Z,1.609344
2018-07-28T01:27:07.561Z,0
2018-07-28T01:27:19.971Z,0
2018-07-28T01:27:32.375Z,0
2018-07-28T01:27:44.781Z,0
2018-07-28T01:27:57.161Z,0
2018-07-28T01:28:09.552Z,1.609344
2018-07-28T01:28:21.979Z,4.828032
2018-07-28T01:28:34.382Z,4.828032
2018-07-28T01:28:46.774Z,4.828032
2018-07-28T01:28:59.169Z,4.828032
2018-07-28T01:29:11.571Z,4.828032
2018-07-28T01:29:23.959Z,4.828032
2018-07-28T01:29:36.362Z,4.828032
2018-07-28T01:29:48.760Z,6.437376
2018-07-28T01:30:01.175Z,6.437376
2018-07-28T01:30:13.575Z,4.828032
2018-07-28T01:30:25.977Z,4.828032
2018-07-28T01:30:38.379Z,4.828032
2018-07-28T01:30:50.758Z,4.828032
2018-07-28T01:31:03.149Z,4.828032
2018-07-28T01:31:15.548Z,3.218688
2018-07-28T01:31:27.936Z,4.828032
2018-07-28T01:31:40.325Z,4.828032
2018-07-28T01:31:52.710Z,4.828032
2018-07-28T01:32:05.096Z,1.609344
2018-07-28T01:32:17.496Z,1.609344
2018-07-28T01:32:29.895Z,1.609344
2018-07-28T01:32:42.332Z,1.609344
2018-07-28T01:32:54.738Z,1.609344
2018-07-28T01:33:07.165Z,1.609344
2018-07-28T01:33:19.682Z,1.609344
2018-07-28T01:33:32.089Z,1.609344
2018-07-28T01:33:44.495Z,1.609344
2018-07-28T01:33:56.873Z,1.609344
2018-07-28T01:34:09.264Z,1.609344
2018-07-28T01:34:21.678Z,1.609344
2018-07-28T01:34:34.097Z,1.609344
2018-07-28T01:34:46.492Z,1.609344
2018-07-28T01:34:58.898Z,1.609344
2018-07-28T01:35:11.300Z,0
2018-07-28T01:35:23.681Z,1.609344
2018-07-28T01:35:36.101Z,1.609344
2018-07-28T01:35:48.527Z,1.609344
2018-07-28T01:36:00.919Z,1.609344
2018-07-28T01:36:13.312Z,1.609344
2018-07-28T01:36:25.702Z,1.609344
2018-07-28T01:36:38.106Z,1.609344
2018-07-28T01:36:50.496Z,1.609344
2018-07-28T01:37:02.893Z,1.609344
2018-07-28T01:37:15.354Z,1.609344
2018-07-28T01:37:27.743Z,1.609344
2018-07-28T01:37:40.144Z,1.609344
2018-07-28T01:37:52.549Z,1.609344
2018-07-28T01:38:05.024Z,0
2018-07-28T01:38:17.597Z,1.609344
2018-07-28T01:38:29.989Z,1.609344
2018-07-28T01:38:42.388Z,1.609344
2018-07-28T01:38:54.763Z,1.609344
2018-07-28T01:39:07.287Z,0
2018-07-28T01:39:19.717Z,1.609344
2018-07-28T01:39:32.115Z,3.218688
2018-07-28T01:39:44.539Z,3.218688
2018-07-28T01:39:57.082Z,3.218688
2018-07-28T01:40:09.496Z,1.609344
2018-07-28T01:40:21.888Z,1.609344
2018-07-28T01:40:34.277Z,1.609344
2018-07-28T01:40:46.765Z,1.609344
2018-07-28T01:40:59.178Z,3.218688
2018-07-28T01:41:11.607Z,1.609344
2018-07-28T01:41:24.010Z,8.04672
2018-07-28T01:41:36.415Z,9.656064
2018-07-28T01:41:48.814Z,9.656064
2018-07-28T01:42:01.227Z,9.656064
2018-07-28T01:42:13.619Z,4.828032
2018-07-28T01:42:26.023Z,4.828032
2018-07-28T01:42:38.467Z,4.828032
2018-07-28T01:42:50.868Z,4.828032
2018-07-28T01:43:03.273Z,4.828032
2018-07-28T01:43:15.677Z,3.218688
2018-07-28T01:43:28.070Z,3.218688
2018-07-28T01:43:40.509Z,3.218688
2018-07-28T01:43:52.894Z,3.218688
2018-07-28T01:44:05.275Z,1.609344
2018-07-28T01:44:17.696Z,4.828032
2018-07-28T01:44:30.077Z,6.437376
2018-07-28T01:44:42.547Z,6.437376
2018-07-28T01:44:54.949Z,6.437376
2018-07-28T01:45:07.356Z,6.437376
2018-07-28T01:45:19.730Z,6.437376
2018-07-28T01:45:32.113Z,6.437376
2018-07-28T01:45:44.522Z,6.437376
2018-07-28T01:45:56.948Z,6.437376
2018-07-28T01:46:09.381Z,0
2018-07-28T01:46:21.784Z,1.609344
2018-07-28T01:46:34.189Z,1.609344
2018-07-28T01:46:46.601Z,1.609344
2018-07-28T01:46:58.997Z,1.609344
2018-07-28T01:47:11.389Z,1.609344
2018-07-28T01:47:23.780Z,1.609344
2018-07-28T01:47:36.259Z,1.609344
2018-07-28T01:47:48.652Z,3.218688
2018-07-28T01:48:01.203Z,4.828032
2018-07-28T01:48:13.593Z,1.609344
2018-07-28T01:48:26.012Z,1.609344
2018-07-28T01:48:38.434Z,1.609344
2018-07-28T01:48:50.987Z,1.609344
2018-07-28T01:49:03.393Z,1.609344
2018-07-28T01:49:15.798Z,1.609344
2018-07-28T01:49:28.534Z,1.609344
2018-07-28T01:49:41.679Z,1.609344
2018-07-28T01:49:54.081Z,3.218688
2018-07-28T01:50:06.500Z,1.609344
2018-07-28T01:50:18.916Z,1.609344
2018-07-28T01:50:31.327Z,1.609344
2018-07-28T01:50:43.710Z,1.609344
2018-07-28T01:50:56.095Z,1.609344
2018-07-28T01:51:08.507Z,0
2018-07-28T01:51:20.895Z,0
2018-07-28T01:51:33.323Z,0
2018-07-28T01:51:45.910Z,1.609344
2018-07-28T01:51:58.335Z,1.609344
2018-07-28T01:52:10.733Z,1.609344
2018-07-28T01:52:23.131Z,1.609344
2018-07-28T01:52:35.528Z,1.609344
2018-07-28T01:52:47.942Z,1.609344
2018-07-28T01:53:00.339Z,1.609344
2018-07-28T01:53:12.750Z,1.609344
2018-07-28T01:53:25.335Z,1.609344
2018-07-28T01:53:37.733Z,1.609344
2018-07-28T01:53:50.133Z,3.218688
2018-07-28T01:54:02.529Z,3.218688
2018-07-28T01:54:14.927Z,3.218688
2018-07-28T01:54:27.304Z,3.218688
2018-07-28T01:54:39.711Z,4.828032
2018-07-28T01:54:52.097Z,4.828032
2018-07-28T01:55:04.497Z,3.218688
2018-07-28T01:55:16.898Z,3.218688
2018-07-28T01:55:29.475Z,3.218688
2018-07-28T01:55:41.881Z,3.218688
2018-07-28T01:55:54.295Z,3.218688
2018-07-28T01:56:06.700Z,3.218688
2018-07-28T01:56:19.095Z,4.828032
2018-07-28T01:56:31.502Z,4.828032
2018-07-28T01:56:43.935Z,4.828032
2018-07-28T01:56:56.345Z,8.04672
2018-07-28T01:57:08.779Z,6.437376
2018-07-28T01:57:21.178Z,6.437376
2018-07-28T01:57:33.569Z,6.437376
2018-07-28T01:57:45.950Z,6.437376
2018-07-28T01:57:58.390Z,6.437376
2018-07-28T01:58:10.792Z,4.828032
2018-07-28T01:58:23.189Z,4.828032
2018-07-28T01:58:35.758Z,4.828032
2018-07-28T01:58:48.157Z,6.437376
2018-07-28T01:59:00.555Z,6.437376
2018-07-28T01:59:12.945Z,8.04672
2018-07-28T01:59:25.420Z,8.04672
2018-07-28T01:59:37.915Z,8.04672
2018-07-28T01:59:51.080Z,11.265408
2018-07-28T02:00:03.582Z,11.265408
2018-07-28T02:00:16.015Z,9.656064
2018-07-28T02:00:28.446Z,11.265408
2018-07-28T02:00:40.953Z,11.265408
2018-07-28T02:00:53.400Z,11.265408
2018-07-28T02:01:05.800Z,1.609344
2018-07-28T02:01:18.193Z,3.218688
2018-07-28T02:01:30.594Z,4.828032
2018-07-28T02:01:43.089Z,6.437376
2018-07-28T02:01:55.501Z,6.437376
2018-07-28T02:02:08.093Z,6.437376
2018-07-28T02:02:20.527Z,8.04672
2018-07-28T02:02:32.925Z,8.04672
2018-07-28T02:02:45.348Z,8.04672
2018-07-28T02:02:57.767Z,8.04672
2018-07-28T02:03:10.188Z,3.218688
2018-07-28T02:03:22.602Z,3.218688
2018-07-28T02:03:34.996Z,3.218688
2018-07-28T02:03:47.431Z,6.437376
2018-07-28T02:03:59.839Z,6.437376
2018-07-28T02:04:12.263Z,4.828032
2018-07-28T02:04:24.855Z,6.437376
2018-07-28T02:04:37.293Z,6.437376
2018-07-28T02:04:49.704Z,6.437376
2018-07-28T02:05:02.109Z,6.437376
2018-07-28T02:05:14.565Z,3.218688
2018-07-28T02:05:26.975Z,3.218688
2018-07-28T02:05:39.376Z,3.218688
2018-07-28T02:05:52.051Z,3.218688
2018-07-28T02:06:04.469Z,1.609344
2018-07-28T02:06:16.933Z,1.609344
2018-07-28T02:06:29.320Z,1.609344
2018-07-28T02:06:41.722Z,3.218688
2018-07-28T02:06:54.124Z,3.218688
2018-07-28T02:07:06.529Z,1.609344
2018-07-28T02:07:18.926Z,1.609344
2018-07-28T02:07:31.313Z,3.218688
2018-07-28T02:07:43.727Z,3.218688
2018-07-28T02:07:56.121Z,3.218688
2018-07-28T02:08:08.518Z,1.609344
2018-07-28T02:08:20.900Z,3.218688
2018-07-28T02:08:33.301Z,3.218688
2018-07-28T02:08:45.701Z,4.828032
2018-07-28T02:08:58.090Z,4.828032
2018-07-28T02:09:10.512Z,1.609344
2018-07-28T02:09:22.921Z,1.609344
2018-07-28T02:09:35.320Z,1.609344
2018-07-28T02:09:47.757Z,1.609344
2018-07-28T02:10:00.175Z,1.609344
2018-07-28T02:10:12.657Z,1.609344
2018-07-28T02:10:25.059Z,1.609344
2018-07-28T02:10:37.478Z,1.609344
2018-07-28T02:10:49.909Z,1.609344
2018-07-28T02:11:02.300Z,1.609344
2018-07-28T02:11:14.690Z,1.609344
2018-07-28T02:11:27.089Z,1.609344
2018-07-28T02:11:39.478Z,1.609344
2018-07-28T02:11:51.884Z,1.609344
2018-07-28T02:12:04.268Z,3.218688
2018-07-28T02:12:16.664Z,1.609344
2018-07-28T02:12:29.046Z,1.609344
2018-07-28T02:12:41.479Z,1.609344
2018-07-28T02:12:53.865Z,1.609344
2018-07-28T02:13:06.274Z,0
2018-07-28T02:13:18.661Z,1.609344
2018-07-28T02:13:31.060Z,1.609344
2018-07-28T02:13:43.494Z,1.609344
2018-07-28T02:13:55.869Z,1.609344
2018-07-28T02:14:08.240Z,1.609344
2018-07-28T02:14:20.609Z,3.218688
2018-07-28T02:14:33.006Z,3.218688
2018-07-28T02:14:45.398Z,3.218688
2018-07-28T02:14:57.779Z,3.218688
2018-07-28T02:15:10.217Z,0
2018-07-28T02:15:22.614Z,1.609344
2018-07-28T02:15:34.998Z,1.609344
2018-07-28T02:15:47.408Z,1.609344
2018-07-28T02:15:59.846Z,1.609344
2018-07-28T02:16:12.250Z,0
2018-07-28T02:16:24.652Z,0
2018-07-28T02:16:37.078Z,0
2018-07-28T02:16:49.534Z,0
2018-07-28T02:17:01.945Z,1.609344
2018-07-28T02:17:14.637Z,0
2018-07-28T02:17:27.040Z,0
2018-07-28T02:17:39.436Z,0
2018-07-28T02:17:51.819Z,1.609344
2018-07-28T02:18:04.245Z,1.609344
2018-07-28T02:18:16.654Z,0
2018-07-28T02:18:29.057Z,0
2018-07-28T02:18:41.453Z,0
2018-07-28T02:18:53.852Z,0
2018-07-28T02:19:06.244Z,0
2018-07-28T02:19:18.809Z,1.609344
2018-07-28T02:19:31.213Z,1.609344
2018-07-28T02:19:43.647Z,1.609344
2018-07-28T02:19:56.071Z,1.609344
2018-07-28T02:20:08.470Z,1.609344
2018-07-28T02:20:20.877Z,3.218688
2018-07-28T02:20:33.268Z,6.437376
2018-07-28T02:20:45.711Z,6.437376
2018-07-28T02:20:58.100Z,6.437376
2018-07-28T02:21:10.512Z,6.437376
2018-07-28T02:21:22.912Z,6.437376
2018-07-28T02:21:35.364Z,9.656064
2018-07-28T02:21:47.772Z,9.656064
2018-07-28T02:22:00.168Z,9.656064
2018-07-28T02:22:12.565Z,6.437376
2018-07-28T02:22:25.294Z,6.437376
2018-07-28T02:22:37.684Z,6.437376
2018-07-28T02:22:50.080Z,6.437376
2018-07-28T02:23:02.518Z,6.437376
2018-07-28T02:23:15.079Z,1.609344
2018-07-28T02:23:27.475Z,1.609344
2018-07-28T02:23:39.867Z,1.609344
2018-07-28T02:23:52.287Z,1.609344
2018-07-28T02:24:04.682Z,1.609344
2018-07-28T02:24:17.104Z,1.609344
2018-07-28T02:24:29.506Z,1.609344
2018-07-28T02:24:41.904Z,1.609344
2018-07-28T02:24:54.310Z,1.609344
2018-07-28T02:25:06.721Z,4.828032
2018-07-28T02:25:19.104Z,6.437376
2018-07-28T02:25:31.522Z,8.04672
2018-07-28T02:25:43.928Z,8.04672
2018-07-28T02:25:56.361Z,8.04672
2018-07-28T02:26:08.767Z,3.218688
2018-07-28T02:26:21.182Z,3.218688
2018-07-28T02:26:33.577Z,3.218688
2018-07-28T02:26:45.967Z,3.218688
2018-07-28T02:26:58.391Z,3.218688
2018-07-28T02:27:10.797Z,3.218688
2018-07-28T02:27:23.233Z,3.218688
2018-07-28T02:27:35.649Z,4.828032
2018-07-28T02:27:48.037Z,4.828032
2018-07-28T02:28:00.435Z,4.828032
2018-07-28T02:28:12.925Z,1.609344
2018-07-28T02:28:25.331Z,1.609344
2018-07-28T02:28:37.720Z,3.218688
2018-07-28T02:28:50.550Z,3.218688